Kingville, South Carolina
Current Conditions -  °F | °C
As of 3:48 AM on Saturday 25 Oct 2014 (Local Time) from KMMT Reporting Station
Haze Haze  
Wind Chill: 43°   Ceiling: Unl
Heat Index: 43°   Visibility: 0.75mi
Dew Point: 43°   Wind: 3mph
Humidity: 100%   Direction: 320°NW
Pressure: 30"   Gusts: NA
Location:  33.8428°N, 80.7414°W
Report Text: KMMT 250748Z AUTO 32003KT 3/4SM R32/4000FT BR CLR 06/06 A3000 RMK AO2
Loading
Personal Weather Stations






























Interactive Weather Map
Tropical Storm Tracking
New forecast layout! Learn more

10-Day Weather Forecast

Advertisements
Track Severe Weather on mobile